^^
Saratoga-Weather Station Historical Data
Daily Summary for June 12, 2021 Units:  English    Metric   Both
Daily Weekly Monthly Yearly Custom
  High: Low: Average:
Temperature: 69.3 °F 57.4 °F 63.9 °F
Dew Point: 65.3 °F 55.6 °F 60.3 °F
Humidity: 94% 77% 88%
Wind Speed: 6mph 0mph 0.5mph
Wind Gust: 7mph - -
Wind- - SSW
Pressure: 29.9 in 29.8 in -
Precipitation: 0.03 in    
Historical Graphs
 
 
Tabular Data for June 12, 2021
Time Temperature Dew Point Pressure Wind Wind Speed Wind Gust Humidity Rainfall Rate (Hourly) solar
00:01 61 °F 58.1 °F 29.9 in Calm     90% 0 in 0 W/m2
00:06 60.6 °F 57.7 °F 29.9 in Calm     90% 0 in 0 W/m2
00:11 60.6 °F 57.7 °F 29.9 in Calm     90% 0 in 0 W/m2
00:16 60.4 °F 57.6 °F 29.9 in Calm     90% 0 in 0 W/m2
00:21 60.4 °F 57.7 °F 29.9 in Calm     91% 0 in 0 W/m2
00:26 60.3 °F 57.6 °F 29.9 in Calm     91% 0 in 0 W/m2
00:31 60.3 °F 57.6 °F 29.9 in Calm     91% 0 in 0 W/m2
00:36 60.3 °F 57.9 °F 29.9 in Calm     92% 0 in 0 W/m2
00:41 60.1 °F 57.7 °F 29.9 in Calm     92% 0 in 0 W/m2
00:46 60.1 °F 57.4 °F 29.9 in Calm     91% 0 in 0 W/m2
00:51 59.9 °F 57.6 °F 29.9 in Calm     92% 0 in 0 W/m2
00:56 59.7 °F 57.4 °F 29.9 in Calm     92% 0 in 0 W/m2
01:01 59.7 °F 57.4 °F 29.9 in Calm     92% 0 in 0 W/m2
01:06 59.5 °F 57.2 °F 29.9 in Calm     92% 0 in 0 W/m2
01:11 59.5 °F 57.2 °F 29.9 in Calm     92% 0 in 0 W/m2
01:16 59.4 °F 57 °F 29.9 in Calm     92% 0 in 0 W/m2
01:21 59.4 °F 57 °F 29.9 in Calm     92% 0 in 0 W/m2
01:26 59.4 °F 57.4 °F 29.9 in Calm     93% 0 in 0 W/m2
01:31 59.4 °F 57.4 °F 29.9 in SW 0.9 mph 1 mph 93% 0 in 0 W/m2
01:36 59.4 °F 57.4 °F 29.9 in SW 0.9 mph 1 mph 93% 0 in 0 W/m2
01:41 59.4 °F 57.4 °F 29.9 in Calm     93% 0 in 0 W/m2
01:46 59.4 °F 57.4 °F 29.9 in Calm     93% 0 in 0 W/m2
01:51 59.4 °F 57.4 °F 29.9 in Calm     93% 0 in 0 W/m2
01:56 59.4 °F 57.4 °F 29.9 in Calm     93% 0 in 0 W/m2
02:01 59.4 °F 57.4 °F 29.9 in Calm     93% 0 in 0 W/m2
02:06 59.4 °F 57.4 °F 29.9 in Calm     93% 0 in 0 W/m2
02:11 59.4 °F 57.4 °F 29.9 in Calm     93% 0 in 0 W/m2
02:16 59.4 °F 57.4 °F 29.9 in Calm     93% 0 in 0 W/m2
02:21 59.2 °F 57.2 °F 29.9 in Calm     93% 0 in 0 W/m2
02:26 59.2 °F 57.2 °F 29.9 in Calm     93% 0 in 0 W/m2
02:31 59.2 °F 57.2 °F 29.9 in Calm     93% 0 in 0 W/m2
02:36 59 °F 57 °F 29.9 in Calm   1 mph 93% 0 in 0 W/m2
02:41 59 °F 57 °F 29.9 in SW 0.9 mph 1 mph 93% 0 in 0 W/m2
02:46 59 °F 57 °F 29.9 in Calm     93% 0 in 0 W/m2
02:51 58.8 °F 56.8 °F 29.9 in Calm     93% 0 in 0 W/m2
02:56 58.8 °F 56.8 °F 29.9 in Calm     93% 0 in 0 W/m2
03:01 58.6 °F 56.7 °F 29.9 in Calm     93% 0 in 0 W/m2
03:06 58.6 °F 56.7 °F 29.9 in Calm     93% 0 in 0 W/m2
03:11 58.6 °F 56.7 °F 29.9 in Calm     93% 0 in 0 W/m2
03:16 58.6 °F 56.7 °F 29.9 in Calm     93% 0 in 0 W/m2
03:21 58.6 °F 56.7 °F 29.9 in Calm     93% 0 in 0 W/m2
03:26 58.5 °F 56.5 °F 29.9 in Calm     93% 0 in 0 W/m2
03:31 58.5 °F 56.5 °F 29.9 in Calm     93% 0 in 0 W/m2
03:36 58.5 °F 56.5 °F 29.9 in Calm     93% 0 in 0 W/m2
03:42 58.5 °F 56.5 °F 29.9 in Calm     93% 0 in 0 W/m2
03:47 58.3 °F 56.3 °F 29.9 in Calm     93% 0 in 0 W/m2
03:52 58.3 °F 56.3 °F 29.9 in Calm     93% 0 in 0 W/m2
03:57 58.3 °F 56.3 °F 29.9 in Calm     93% 0 in 0 W/m2
04:02 58.1 °F 56.1 °F 29.9 in Calm     93% 0 in 0 W/m2
04:07 57.9 °F 55.9 °F 29.9 in Calm     93% 0 in 0 W/m2
04:12 57.9 °F 55.9 °F 29.9 in Calm     93% 0 in 0 W/m2
04:17 57.9 °F 55.9 °F 29.9 in Calm     93% 0 in 0 W/m2
04:22 57.7 °F 55.8 °F 29.9 in Calm     93% 0 in 0 W/m2
04:27 57.7 °F 55.8 °F 29.9 in SW 1 mph 1 mph 93% 0 in 0 W/m2
04:32 57.7 °F 55.9 °F 29.9 in Calm     94% 0 in 0 W/m2
04:37 57.7 °F 55.9 °F 29.9 in Calm     94% 0 in 0 W/m2
04:42 57.7 °F 55.9 °F 29.9 in Calm     94% 0 in 0 W/m2
04:47 57.7 °F 55.9 °F 29.9 in Calm     94% 0 in 0 W/m2
04:52 57.6 °F 55.8 °F 29.9 in Calm   1 mph 94% 0 in 0 W/m2
04:57 57.6 °F 55.8 °F 29.9 in Calm     94% 0 in 0 W/m2
05:02 57.6 °F 55.8 °F 29.9 in Calm     94% 0 in 0 W/m2
05:07 57.6 °F 55.8 °F 29.9 in Calm     94% 0 in 0 W/m2
05:12 57.6 °F 55.8 °F 29.9 in Calm     94% 0 in 0 W/m2
05:17 57.4 °F 55.6 °F 29.9 in Calm     94% 0 in 0 W/m2
05:22 57.4 °F 55.6 °F 29.9 in Calm     94% 0 in 0 W/m2
05:27 57.4 °F 55.6 °F 29.9 in Calm     94% 0 in 0 W/m2
05:32 57.4 °F 55.6 °F 29.9 in SSW 2 mph 3 mph 94% 0 in 0 W/m2
05:37 57.6 °F 55.8 °F 29.9 in SW 0.9 mph 1 mph 94% 0 in 0 W/m2
05:42 57.6 °F 55.8 °F 29.9 in SW 0.9 mph 3 mph 94% 0 in 0 W/m2
05:47 57.6 °F 55.8 °F 29.8 in Calm   1 mph 94% 0 in 0 W/m2
05:52 57.6 °F 55.8 °F 29.8 in Calm     94% 0 in 7 W/m2
05:57 57.6 °F 55.8 °F 29.9 in Calm     94% 0 in 9 W/m2
06:02 57.6 °F 55.8 °F 29.9 in Calm     94% 0 in 12 W/m2
06:07 57.4 °F 55.6 °F 29.9 in Calm     94% 0 in 16 W/m2
06:12 57.6 °F 55.8 °F 29.9 in Calm     94% 0 in 18 W/m2
06:17 57.6 °F 55.8 °F 29.9 in SW 0.9 mph 2 mph 94% 0 in 21 W/m2
06:22 57.6 °F 55.8 °F 29.9 in Calm   1 mph 94% 0 in 25 W/m2
06:27 57.7 °F 55.9 °F 29.9 in SW 2 mph 2 mph 94% 0 in 28 W/m2
06:32 57.7 °F 55.9 °F 29.9 in Calm   1 mph 94% 0 in 33 W/m2
06:37 57.9 °F 56.1 °F 29.9 in Calm     94% 0 in 37 W/m2
06:42 57.9 °F 56.1 °F 29.9 in Calm     94% 0 in 44 W/m2
06:47 58.3 °F 56.5 °F 29.9 in Calm     94% 0 in 49 W/m2
06:52 58.3 °F 56.5 °F 29.9 in Calm     94% 0 in 51 W/m2
06:57 58.5 °F 56.7 °F 29.9 in ESE 0.9 mph 3 mph 94% 0 in 49 W/m2
07:02 58.6 °F 56.8 °F 29.9 in Calm     94% 0 in 46 W/m2
07:07 59 °F 57 °F 29.8 in ESE 0.9 mph 3 mph 93% 0 in 40 W/m2
07:12 59.4 °F 57.4 °F 29.8 in ESE 0.9 mph 1 mph 93% 0 in 39 W/m2
07:17 59.5 °F 57.2 °F 29.8 in Calm   2 mph 92% 0 in 40 W/m2
07:22 59.5 °F 57.2 °F 29.8 in Calm     92% 0 in 39 W/m2
07:27 59.7 °F 57 °F 29.8 in Calm     91% 0 in 42 W/m2
07:32 59.7 °F 57 °F 29.8 in Calm     91% 0 in 49 W/m2
07:37 59.7 °F 57 °F 29.8 in Calm     91% 0 in 58 W/m2
07:42 59.9 °F 57 °F 29.8 in Calm     90% 0 in 65 W/m2
07:47 60.1 °F 57.2 °F 29.8 in Calm     90% 0 in 67 W/m2
07:52 60.3 °F 57.4 °F 29.8 in Calm   1 mph 90% 0 in 60 W/m2
07:57 60.3 °F 57.4 °F 29.8 in Calm     90% 0 in 72 W/m2
08:03 60.4 °F 57.6 °F 29.8 in Calm     90% 0 in 93 W/m2
08:08 60.6 °F 57.7 °F 29.8 in Calm     90% 0 in 160 W/m2
08:13 61 °F 57.7 °F 29.8 in Calm     89% 0 in 137 W/m2
08:18 61.5 °F 57.9 °F 29.8 in Calm     88% 0 in 158 W/m2
08:23 62.1 °F 58.1 °F 29.8 in Calm     87% 0 in 146 W/m2
08:28 62.4 °F 58.1 °F 29.8 in Calm     86% 0 in 169 W/m2
08:33 62.6 °F 58.3 °F 29.8 in South 0.9 mph 2 mph 86% 0 in 193 W/m2
08:38 63 °F 58.6 °F 29.8 in ENE 2 mph 3 mph 86% 0 in 186 W/m2
08:43 63 °F 58.5 °F 29.8 in Calm   2 mph 85% 0 in 167 W/m2
08:48 63.1 °F 58.3 °F 29.8 in Calm   3 mph 84% 0 in 125 W/m2
08:53 63.1 °F 58.3 °F 29.8 in North 0.9 mph 1 mph 84% 0 in 120 W/m2
08:58 63.1 °F 57.9 °F 29.8 in NE 2 mph 3 mph 83% 0 in 128 W/m2
09:03 63.1 °F 57.9 °F 29.8 in ENE 0.9 mph 2 mph 83% 0 in 130 W/m2
09:08 63.1 °F 58.3 °F 29.8 in ENE 0.9 mph 2 mph 84% 0 in 167 W/m2
09:13 63.3 °F 58.1 °F 29.8 in East 2 mph 4 mph 83% 0 in 186 W/m2
09:18 63.5 °F 58.3 °F 29.8 in SE 2.9 mph 3 mph 83% 0 in 148 W/m2
09:23 63.7 °F 58.5 °F 29.8 in ENE 0.9 mph 4 mph 83% 0 in 135 W/m2
09:28 63.9 °F 58.6 °F 29.8 in Calm   2 mph 83% 0 in 134 W/m2
09:33 63.9 °F 58.6 °F 29.8 in NNE 0.9 mph 2 mph 83% 0 in 162 W/m2
09:38 63.9 °F 58.6 °F 29.8 in WNW 2 mph 2 mph 83% 0 in 186 W/m2
09:43 64 °F 58.8 °F 29.8 in NE 0.9 mph 2 mph 83% 0 in 139 W/m2
09:48 64 °F 58.8 °F 29.8 in NE 0.9 mph 1 mph 83% 0 in 84 W/m2
09:53 64.2 °F 59 °F 29.8 in Calm   2 mph 83% 0 in 70 W/m2
09:58 64.2 °F 59 °F 29.8 in NNE 0.9 mph 1 mph 83% 0 in 60 W/m2
10:03 64.2 °F 59.4 °F 29.8 in Calm   2 mph 84% 0 in 95 W/m2
10:08 64.2 °F 59.4 °F 29.8 in Calm   1 mph 84% 0 in 162 W/m2
10:13 64.4 °F 59.7 °F 29.8 in Calm   2 mph 85% 0 in 174 W/m2
10:18 64.6 °F 59.9 °F 29.8 in Calm   2 mph 85% 0 in 158 W/m2
10:23 64.8 °F 59.9 °F 29.8 in Calm   1 mph 84% 0 in 172 W/m2
10:28 64.9 °F 59.9 °F 29.8 in South 0.9 mph 2 mph 84% 0 in 153 W/m2
10:33 65.1 °F 60.1 °F 29.8 in Calm     84% 0 in 139 W/m2
10:38 65.3 °F 60.3 °F 29.8 in Calm   2 mph 84% 0 in 211 W/m2
10:43 65.7 °F 60.4 °F 29.8 in South 0.9 mph 1 mph 83% 0 in 237 W/m2
10:48 65.8 °F 60.6 °F 29.8 in ENE 0.9 mph 1 mph 83% 0 in 229 W/m2
10:53 66 °F 60.4 °F 29.8 in NE 0.9 mph 2 mph 82% 0 in 218 W/m2
10:58 66.4 °F 60.4 °F 29.8 in ENE 0.9 mph 2 mph 81% 0 in 207 W/m2
11:03 66.4 °F 60.4 °F 29.8 in ENE 0.9 mph 2 mph 81% 0 in 192 W/m2
11:08 66.6 °F 61 °F 29.8 in North 0.9 mph 3 mph 82% 0 in 209 W/m2
11:13 66.6 °F 60.6 °F 29.8 in NE 2 mph 3 mph 81% 0 in 186 W/m2
11:18 66.7 °F 60.8 °F 29.8 in Calm   2 mph 81% 0 in 104 W/m2
11:23 66.9 °F 61 °F 29.8 in Calm   3 mph 81% 0 in 98 W/m2
11:28 66.9 °F 61.2 °F 29.8 in Calm     82% 0 in 100 W/m2
11:33 66.9 °F 61 °F 29.8 in Calm     81% 0 in 93 W/m2
11:38 66.9 °F 61 °F 29.8 in Calm     81% 0 in 97 W/m2
11:43 66.9 °F 61.2 °F 29.8 in Calm     82% 0 in 95 W/m2
11:48 67.1 °F 61.7 °F 29.8 in Calm     83% 0 in 113 W/m2
11:53 67.1 °F 61.7 °F 29.8 in Calm     83% 0 in 178 W/m2
11:58 67.3 °F 61.5 °F 29.8 in Calm     82% 0 in 195 W/m2
12:03 67.3 °F 61.2 °F 29.8 in Calm   1 mph 81% 0 in 178 W/m2
12:08 67.5 °F 61.2 °F 29.8 in Calm   3 mph 80% 0 in 156 W/m2
12:13 67.6 °F 61.2 °F 29.8 in Calm   1 mph 80% 0 in 202 W/m2
12:18 67.6 °F 61 °F 29.8 in Calm   2 mph 79% 0 in 158 W/m2
12:23 67.8 °F 61 °F 29.8 in East 0.9 mph 2 mph 79% 0 in 139 W/m2
12:28 67.8 °F 61.3 °F 29.8 in Calm   2 mph 80% 0 in 113 W/m2
12:33 67.8 °F 61.7 °F 29.8 in Calm   1 mph 81% 0 in 107 W/m2
12:38 67.6 °F 61.5 °F 29.8 in Calm     81% 0 in 132 W/m2
12:48 67.8 °F 61.7 °F 29.8 in ESE 0.9 mph 1 mph 81% 0 in 139 W/m2
12:53 67.6 °F 61 °F 29.8 in ESE 0.9 mph 2 mph 79% 0 in 142 W/m2
12:58 67.8 °F 61.3 °F 29.8 in Calm     80% 0 in 125 W/m2
13:03 67.8 °F 61 °F 29.8 in South 0.9 mph 2 mph 79% 0 in 130 W/m2
13:08 67.8 °F 60.6 °F 29.8 in NE 2.9 mph 3 mph 78% 0 in 137 W/m2
13:13 67.8 °F 60.6 °F 29.8 in NNE 0.9 mph 2 mph 78% 0 in 128 W/m2
13:18 68 °F 60.4 °F 29.8 in ESE 2.9 mph 4 mph 77% 0 in 153 W/m2
13:23 68.2 °F 61 °F 29.8 in Calm   1 mph 78% 0 in 165 W/m2
13:28 68.2 °F 60.6 °F 29.8 in ESE 2 mph 4 mph 77% 0 in 125 W/m2
13:33 68.2 °F 61 °F 29.8 in SE 0.9 mph 1 mph 78% 0 in 146 W/m2
13:38 68.4 °F 61.5 °F 29.8 in Calm   3 mph 79% 0 in 153 W/m2
13:43 68.4 °F 61.9 °F 29.8 in WNW 2 mph 3 mph 80% 0 in 120 W/m2
13:48 68.2 °F 61.7 °F 29.8 in NW 2 mph 3 mph 80% 0 in 109 W/m2
13:54 67.8 °F 61.7 °F 29.8 in NNW 0.9 mph 6 mph 81% 0 in 153 W/m2
13:59 67.8 °F 62.1 °F 29.8 in NW 0.9 mph 3 mph 82% 0 in 179 W/m2
14:04 67.8 °F 62.1 °F 29.8 in Calm   1 mph 82% 0 in 134 W/m2
14:09 67.8 °F 62.1 °F 29.8 in ENE 0.9 mph 3 mph 82% 0 in 142 W/m2
14:14 68 °F 62.2 °F 29.8 in Calm   3 mph 82% 0 in 195 W/m2
14:19 68 °F 62.6 °F 29.8 in NW 0.9 mph 2 mph 83% 0 in 178 W/m2
14:24 68.2 °F 62.8 °F 29.8 in SE 0.9 mph 2 mph 83% 0 in 202 W/m2
14:29 68.2 °F 62.8 °F 29.8 in ESE 2 mph 4 mph 83% 0 in 185 W/m2
14:34 68.2 °F 62.8 °F 29.8 in ENE 0.9 mph 4 mph 83% 0 in 141 W/m2
14:39 68 °F 63 °F 29.8 in NW 2.9 mph 3 mph 84% 0 in 116 W/m2
14:44 67.6 °F 62.2 °F 29.8 in WNW 2 mph 2 mph 83% 0 in 105 W/m2
14:49 67.5 °F 62.4 °F 29.8 in Calm   2 mph 84% 0 in 128 W/m2
14:54 67.5 °F 62.8 °F 29.8 in NNW 0.9 mph 3 mph 85% 0 in 179 W/m2
14:59 67.3 °F 62.6 °F 29.8 in WNW 0.9 mph 2 mph 85% 0 in 120 W/m2
15:04 67.3 °F 62.6 °F 29.8 in NNW 0.9 mph 3 mph 85% 0 in 88 W/m2
15:09 67.1 °F 62.1 °F 29.8 in NNW 0.9 mph 2 mph 84% 0 in 111 W/m2
15:14 67.3 °F 62.6 °F 29.8 in WSW 0.9 mph 3 mph 85% 0 in 135 W/m2
15:19 67.3 °F 63 °F 29.8 in Calm   1 mph 86% 0 in 158 W/m2
15:24 67.5 °F 63.5 °F 29.8 in WSW 2 mph 2 mph 87% 0 in 221 W/m2
15:29 67.5 °F 63.1 °F 29.8 in WNW 0.9 mph 2 mph 86% 0 in 236 W/m2
15:34 67.5 °F 63.1 °F 29.8 in North 0.9 mph 3 mph 86% 0 in 192 W/m2
15:39 67.6 °F 63 °F 29.8 in Calm     85% 0 in 153 W/m2
15:44 67.8 °F 63.1 °F 29.8 in East 2 mph 2 mph 85% 0 in 188 W/m2
15:49 68 °F 63.3 °F 29.8 in West 0.9 mph 3 mph 85% 0 in 188 W/m2
15:54 68.2 °F 63.1 °F 29.8 in ENE 0.9 mph 2 mph 84% 0 in 79 W/m2
16:04 68 °F 62.6 °F 29.8 in Calm   2 mph 83% 0 in 65 W/m2
16:09 67.8 °F 62.8 °F 29.8 in Calm   1 mph 84% 0 in 79 W/m2
16:14 67.8 °F 63.5 °F 29.8 in South 0.9 mph 1 mph 86% 0.02 in 158 W/m2
16:19 67.6 °F 63.3 °F 29.8 in Calm     86% 0.02 in 125 W/m2
16:24 67.6 °F 63.7 °F 29.8 in Calm     87% 0.02 in 81 W/m2
16:29 67.5 °F 63.9 °F 29.8 in Calm     88% 0.02 in 74 W/m2
16:34 67.3 °F 63.9 °F 29.8 in South 0.9 mph 2 mph 89% 0.03 in 60 W/m2
16:39 67.3 °F 64.2 °F 29.8 in Calm     90% 0.03 in 72 W/m2
16:44 67.1 °F 64 °F 29.8 in Calm   2 mph 90% 0.03 in 90 W/m2
16:49 66.9 °F 63.9 °F 29.8 in South 0.9 mph 2 mph 90% 0.03 in 155 W/m2
16:54 66.9 °F 64.2 °F 29.8 in Calm     91% 0.03 in 169 W/m2
16:59 66.9 °F 64.2 °F 29.8 in Calm   2 mph 91% 0.03 in 186 W/m2
17:04 66.9 °F 64.2 °F 29.8 in SSW 0.9 mph 2 mph 91% 0.03 in 113 W/m2
17:09 66.7 °F 63.7 °F 29.8 in Calm   1 mph 90% 0.03 in 116 W/m2
17:14 67.1 °F 64.4 °F 29.8 in Calm   1 mph 91% 0.02 in 146 W/m2
17:19 67.3 °F 64.6 °F 29.8 in Calm     91% 0.01 in 148 W/m2
17:24 67.1 °F 64 °F 29.8 in Calm     90% 0.01 in 151 W/m2
17:29 67.5 °F 64.4 °F 29.8 in SW 0.9 mph 2 mph 90% 0.01 in 192 W/m2
17:34 67.5 °F 64.4 °F 29.8 in WSW 0.9 mph 2 mph 90% 0 in 202 W/m2
17:39 67.6 °F 64.6 °F 29.8 in WSW 0.9 mph 2 mph 90% 0 in 176 W/m2
17:44 67.6 °F 64.2 °F 29.8 in Calm   1 mph 89% 0 in 144 W/m2
17:49 67.6 °F 64.2 °F 29.8 in Calm     89% 0 in 202 W/m2
17:54 68 °F 64.6 °F 29.8 in Calm     89% 0 in 283 W/m2
17:59 68.4 °F 64.6 °F 29.8 in Calm     88% 0 in 424 W/m2
18:04 68.9 °F 64.6 °F 29.8 in NW 0.9 mph 2 mph 86% 0 in 251 W/m2
18:09 69.1 °F 64.8 °F 29.8 in Calm     86% 0 in 211 W/m2
18:14 69.3 °F 64.6 °F 29.8 in Calm   2 mph 85% 0 in 118 W/m2
18:19 69.3 °F 64.6 °F 29.8 in WNW 0.9 mph 2 mph 85% 0 in 130 W/m2
18:24 69.1 °F 64.8 °F 29.8 in Calm     86% 0 in 144 W/m2
18:29 69.3 °F 65.3 °F 29.8 in Calm   2 mph 87% 0 in 137 W/m2
18:34 69.3 °F 65.3 °F 29.8 in Calm     87% 0 in 162 W/m2
18:39 69.1 °F 65.1 °F 29.8 in WNW 0.9 mph 2 mph 87% 0 in 171 W/m2
18:44 68.7 °F 64.8 °F 29.8 in WNW 0.9 mph 2 mph 87% 0 in 163 W/m2
18:49 68.7 °F 64.9 °F 29.8 in Calm     88% 0 in 151 W/m2
18:54 68.5 °F 64.2 °F 29.8 in WNW 0.9 mph 1 mph 86% 0 in 195 W/m2
18:59 68.5 °F 63.9 °F 29.8 in Calm     85% 0 in 186 W/m2
19:04 68.9 °F 64.9 °F 29.8 in Calm     87% 0 in 169 W/m2
19:09 68.9 °F 64.2 °F 29.8 in WNW 0.9 mph 2 mph 85% 0 in 155 W/m2
19:14 68.9 °F 64.6 °F 29.8 in WNW 2 mph 2 mph 86% 0 in 132 W/m2
19:19 68.7 °F 64 °F 29.8 in Calm   2 mph 85% 0 in 137 W/m2
19:24 68.7 °F 64.4 °F 29.8 in Calm     86% 0 in 149 W/m2
19:29 68.7 °F 64.4 °F 29.8 in WNW 2 mph 2 mph 86% 0 in 107 W/m2
19:34 68.5 °F 63.9 °F 29.8 in Calm   1 mph 85% 0 in 88 W/m2
19:39 68.5 °F 64.2 °F 29.8 in WNW 2 mph 2 mph 86% 0 in 72 W/m2
19:44 68.4 °F 63.7 °F 29.8 in Calm   3 mph 85% 0 in 62 W/m2
19:49 68.4 °F 64 °F 29.8 in Calm   1 mph 86% 0 in 65 W/m2
19:54 68.2 °F 64.4 °F 29.8 in Calm     88% 0 in 74 W/m2
19:59 68 °F 64.4 °F 29.8 in Calm     88% 0 in 67 W/m2
20:05 67.8 °F 64.2 °F 29.8 in WNW 0.9 mph 2 mph 88% 0 in 56 W/m2
20:10 67.6 °F 64 °F 29.8 in WNW 2 mph 2 mph 88% 0 in 60 W/m2
20:15 67.3 °F 63.9 °F 29.8 in Calm   1 mph 89% 0 in 69 W/m2
20:20 67.3 °F 63.9 °F 29.8 in Calm     89% 0 in 54 W/m2
20:25 67.1 °F 63.7 °F 29.8 in West 2 mph 3 mph 89% 0 in 39 W/m2
20:30 66.9 °F 63.3 °F 29.8 in West 0.9 mph 3 mph 88% 0 in 28 W/m2
20:35 66.7 °F 63.1 °F 29.8 in WNW 6 mph 6 mph 88% 0 in 26 W/m2
20:40 66.7 °F 63.3 °F 29.8 in West 2 mph 4 mph 89% 0 in 23 W/m2
20:45 66.6 °F 63 °F 29.8 in WNW 0.9 mph 3 mph 88% 0 in 19 W/m2
20:50 66.4 °F 62.8 °F 29.8 in West 2 mph 4 mph 88% 0 in 19 W/m2
20:55 66.4 °F 62.8 °F 29.8 in West 2.9 mph 3 mph 88% 0 in 16 W/m2
21:00 66.4 °F 63 °F 29.8 in West 2 mph 2 mph 89% 0 in 12 W/m2
21:05 66.2 °F 62.8 °F 29.8 in West 2 mph 3 mph 89% 0 in 12 W/m2
21:10 66 °F 62.6 °F 29.8 in West 0.9 mph 3 mph 89% 0 in 14 W/m2
21:15 66 °F 62.6 °F 29.8 in West 0.9 mph 4 mph 89% 0 in 14 W/m2
21:20 66 °F 62.6 °F 29.8 in West 2 mph 2 mph 89% 0 in 11 W/m2
21:25 65.8 °F 62.4 °F 29.8 in West 2 mph 7 mph 89% 0 in 12 W/m2
21:30 66 °F 62.6 °F 29.8 in WSW 0.9 mph 4 mph 89% 0 in 16 W/m2
21:35 66 °F 62.6 °F 29.8 in West 0.9 mph 7 mph 89% 0 in 14 W/m2
21:40 66 °F 62.6 °F 29.8 in WSW 0.9 mph 3 mph 89% 0 in 7 W/m2
21:45 66 °F 62.6 °F 29.8 in West 0.9 mph 5 mph 89% 0 in 0 W/m2
21:50 65.8 °F 62.4 °F 29.8 in West 0.9 mph 1 mph 89% 0 in 0 W/m2
21:55 65.8 °F 62.4 °F 29.8 in Calm   1 mph 89% 0 in 0 W/m2
22:00 65.8 °F 62.4 °F 29.8 in Calm     89% 0 in 0 W/m2
22:05 65.7 °F 62.6 °F 29.8 in WSW 0.9 mph 2 mph 90% 0 in 0 W/m2
22:10 65.7 °F 62.6 °F 29.8 in West 2 mph 4 mph 90% 0 in 0 W/m2
22:15 65.5 °F 62.4 °F 29.8 in SW 0.9 mph 3 mph 90% 0 in 0 W/m2
22:20 65.5 °F 62.4 °F 29.8 in WNW 2 mph 3 mph 90% 0 in 0 W/m2
22:25 65.3 °F 62.2 °F 29.8 in Calm   2 mph 90% 0 in 0 W/m2
22:30 65.3 °F 62.1 °F 29.8 in WSW 2 mph 2 mph 89% 0 in 0 W/m2
22:35 65.1 °F 61.9 °F 29.8 in WSW 0.9 mph 3 mph 89% 0 in 0 W/m2
22:40 65.1 °F 61.9 °F 29.8 in Calm     89% 0 in 0 W/m2
22:45 65.1 °F 62.1 °F 29.8 in WSW 0.9 mph 2 mph 90% 0 in 0 W/m2
22:50 64.9 °F 61.9 °F 29.8 in Calm     90% 0 in 0 W/m2
22:55 64.8 °F 62.1 °F 29.8 in Calm     91% 0 in 0 W/m2
23:00 64.6 °F 61.9 °F 29.8 in Calm     91% 0 in 0 W/m2
23:05 64.4 °F 61.7 °F 29.8 in Calm     91% 0 in 0 W/m2
23:10 64.2 °F 61.5 °F 29.8 in Calm     91% 0 in 0 W/m2
23:15 64 °F 61.3 °F 29.8 in Calm   2 mph 91% 0 in 0 W/m2
23:20 64 °F 61.3 °F 29.8 in Calm   2 mph 91% 0 in 0 W/m2
23:25 64 °F 61.3 °F 29.8 in West 2 mph 2 mph 91% 0 in 0 W/m2
23:30 64.2 °F 61.5 °F 29.8 in Calm   2 mph 91% 0 in 0 W/m2
23:35 64.2 °F 61.5 °F 29.8 in West 2 mph 2 mph 91% 0 in 0 W/m2
23:40 64.2 °F 61.5 °F 29.8 in West 2 mph 2 mph 91% 0 in 0 W/m2
23:45 64.2 °F 61.5 °F 29.8 in West 2 mph 3 mph 91% 0 in 0 W/m2
23:50 64.2 °F 61.2 °F 29.8 in Calm   2 mph 90% 0 in 0 W/m2
23:55 64.2 °F 61.2 °F 29.8 in Calm     90% 0 in 0 W/m2
Juneau County Weather
Compliments of Weather Underground - 4 mb